This is the latest recevied weather packets stored in our database for station/object IZ2OSD. If no packets are shown the sender has not sent any weather packets the latest 10 day(s).
| Time | Temp. | Humidity | Pressure | Rain* | Wind** | Luminosity | Snow |
|---|---|---|---|---|---|---|---|
| 1777873418 | 16.67° C | 57% | 1016.3 hPa | 0 mm | - | - | - |
| 1777870983 | 14.44° C | 60% | 1016 hPa | 0 mm | - | - | - |
| 1777866142 | 13.89° C | 61% | 1015.5 hPa | 0 mm | - | - | - |
| 1777864935 | 13.89° C | 62% | 1015.5 hPa | 0 mm | - | - | - |
| 1777861322 | 15° C | 63% | 1015.6 hPa | 0 mm | - | - | - |
| 1777857690 | 16.11° C | 56% | 1015.4 hPa | 0 mm | - | - | - |
| 1777857059 | 16.11° C | 57% | 1015.6 hPa | 0 mm | - | - | - |
| 1777854636 | 16.11° C | 60% | 1016 hPa | 0 mm | - | - | - |
| 1777854035 | 16.11° C | 60% | 1015.9 hPa | 0 mm | - | - | - |
| 1777849486 | 16.67° C | 56% | 1016.6 hPa | 0 mm | - | - | - |
| 1777847072 | 17.22° C | 53% | 1016.6 hPa | 0 mm | - | - | - |
| 1777841635 | 18.33° C | 48% | 1016.1 hPa | 0 mm | - | - | - |
| 1777836190 | 20° C | 44% | 1015.6 hPa | 0 mm | - | - | - |
| 1777827721 | 22.78° C | 39% | 1015.1 hPa | 0 mm | - | - | - |
| 1777825925 | 23.33° C | 39% | 1015.2 hPa | 0 mm | - | - | - |
| 1777822881 | 23.33° C | 39% | 1015.8 hPa | 0 mm | - | - | - |
| 1777815044 | 24.44° C | 34% | 1017 hPa | 0 mm | - | - | - |
| 1777813813 | 23.33° C | 35% | 1017.4 hPa | 0 mm | - | - | - |
| 1777811696 | 23.33° C | 36% | 1017.3 hPa | 0 mm | - | - | - |
| 1777810839 | 23.89° C | 35% | 1017.5 hPa | 0 mm | - | - | - |
| 1777810235 | 23.89° C | 40% | 1017.7 hPa | 0 mm | - | - | - |
| 1777806609 | 22.78° C | 39% | 1017.7 hPa | 0 mm | - | - | - |
| 1777805697 | 22.78° C | 37% | 1017.7 hPa | 0 mm | - | - | - |
| 1777794376 | 20° C | 56% | 1018.1 hPa | 0 mm | - | - | - |
| 1777791956 | 17.78° C | 60% | 1018.3 hPa | 0 mm | - | - | - |
* Rain latest hour (hover to see other rain measurements)
** Current wind speed in m/s (hover to see current wind gust speed)